sensor_id;sensor_type;location;lat;lon;timestamp;pressure;altitude;pressure_sealevel;temperature;humidity
5703;BME280;2876;51.738;10.050;2023-02-22T00:05:47;99325.09;;;9.43;99.31
5703;BME280;2876;51.738;10.050;2023-02-22T00:11:54;99314.69;;;9.33;99.46
5703;BME280;2876;51.738;10.050;2023-02-22T00:17:56;99312.47;;;9.36;99.37
5703;BME280;2876;51.738;10.050;2023-02-22T00:23:58;99308.97;;;9.36;99.45
5703;BME280;2876;51.738;10.050;2023-02-22T00:30:00;99306.31;;;9.36;99.69
5703;BME280;2876;51.738;10.050;2023-02-22T00:36:02;99300.38;;;9.40;99.01
5703;BME280;2876;51.738;10.050;2023-02-22T00:42:05;99299.69;;;9.60;98.24
5703;BME280;2876;51.738;10.050;2023-02-22T00:48:08;99291.09;;;9.43;98.53
5703;BME280;2876;51.738;10.050;2023-02-22T00:54:10;99285.63;;;9.30;98.78
5703;BME280;2876;51.738;10.050;2023-02-22T01:00:26;99279.94;;;9.39;98.10
5703;BME280;2876;51.738;10.050;2023-02-22T01:06:28;99274.53;;;9.54;98.01
5703;BME280;2876;51.738;10.050;2023-02-22T01:12:30;99271.06;;;9.32;99.20
5703;BME280;2876;51.738;10.050;2023-02-22T01:18:36;99277.69;;;9.15;99.87
5703;BME280;2876;51.738;10.050;2023-02-22T01:24:37;99253.34;;;9.10;100.00
5703;BME280;2876;51.738;10.050;2023-02-22T01:30:40;99255.47;;;9.14;99.78
5703;BME280;2876;51.738;10.050;2023-02-22T01:36:42;99257.06;;;9.09;99.89
5703;BME280;2876;51.738;10.050;2023-02-22T01:42:44;99253.34;;;9.10;99.81
5703;BME280;2876;51.738;10.050;2023-02-22T01:54:59;99254.19;;;9.10;100.00
5703;BME280;2876;51.738;10.050;2023-02-22T02:01:01;99236.66;;;9.08;100.00
5703;BME280;2876;51.738;10.050;2023-02-22T02:07:06;99232.97;;;9.09;100.00
5703;BME280;2876;51.738;10.050;2023-02-22T02:13:09;99235.94;;;9.21;100.00
5703;BME280;2876;51.738;10.050;2023-02-22T02:19:46;99229.88;;;9.33;99.91
5703;BME280;2876;51.738;10.050;2023-02-22T02:45:32;99211.38;;;9.10;100.00
5703;BME280;2876;51.738;10.050;2023-02-22T02:51:43;99217.56;;;9.11;100.00
5703;BME280;2876;51.738;10.050;2023-02-22T02:57:46;99206.22;;;9.09;100.00
5703;BME280;2876;51.738;10.050;2023-02-22T03:04:19;99201.06;;;9.07;100.00
5703;BME280;2876;51.738;10.050;2023-02-22T03:11:28;99204.88;;;9.20;100.00
5703;BME280;2876;51.738;10.050;2023-02-22T03:23:46;99182.16;;;9.09;100.00
5703;BME280;2876;51.738;10.050;2023-02-22T03:29:55;99173.03;;;9.03;100.00
5703;BME280;2876;51.738;10.050;2023-02-22T03:36:29;99167.50;;;9.05;100.00
5703;BME280;2876;51.738;10.050;2023-02-22T03:42:33;99166.19;;;9.22;100.00
5703;BME280;2876;51.738;10.050;2023-02-22T03:54:50;99158.91;;;9.09;100.00
5703;BME280;2876;51.738;10.050;2023-02-22T04:00:56;99157.88;;;9.10;100.00
5703;BME280;2876;51.738;10.050;2023-02-22T04:06:58;99164.63;;;9.06;100.00
5703;BME280;2876;51.738;10.050;2023-02-22T04:13:00;99158.00;;;9.02;100.00
5703;BME280;2876;51.738;10.050;2023-02-22T04:19:02;99163.34;;;9.02;100.00
5703;BME280;2876;51.738;10.050;2023-02-22T04:25:04;99156.16;;;9.03;100.00
5703;BME280;2876;51.738;10.050;2023-02-22T04:31:06;99150.03;;;9.09;100.00
5703;BME280;2876;51.738;10.050;2023-02-22T04:37:08;99159.84;;;9.02;100.00
5703;BME280;2876;51.738;10.050;2023-02-22T04:43:11;99163.19;;;9.04;100.00
5703;BME280;2876;51.738;10.050;2023-02-22T04:49:13;99156.81;;;9.05;100.00
5703;BME280;2876;51.738;10.050;2023-02-22T04:55:15;99160.78;;;9.15;100.00
5703;BME280;2876;51.738;10.050;2023-02-22T05:01:17;99152.91;;;9.07;100.00
5703;BME280;2876;51.738;10.050;2023-02-22T05:07:20;99154.06;;;8.98;100.00
5703;BME280;2876;51.738;10.050;2023-02-22T05:13:22;99144.19;;;8.99;100.00
5703;BME280;2876;51.738;10.050;2023-02-22T05:19:24;99143.78;;;8.95;99.92
5703;BME280;2876;51.738;10.050;2023-02-22T05:25:27;99144.28;;;8.84;100.00
5703;BME280;2876;51.738;10.050;2023-02-22T05:31:29;99150.84;;;8.81;100.00
5703;BME280;2876;51.738;10.050;2023-02-22T05:37:31;99154.94;;;8.77;100.00
5703;BME280;2876;51.738;10.050;2023-02-22T05:43:33;99139.25;;;8.74;100.00
5703;BME280;2876;51.738;10.050;2023-02-22T05:49:35;99132.41;;;8.65;100.00
5703;BME280;2876;51.738;10.050;2023-02-22T05:55:37;99126.59;;;8.61;100.00
5703;BME280;2876;51.738;10.050;2023-02-22T06:01:38;99127.81;;;8.59;100.00
5703;BME280;2876;51.738;10.050;2023-02-22T06:07:40;99122.63;;;8.79;100.00
5703;BME280;2876;51.738;10.050;2023-02-22T06:13:49;99133.13;;;8.80;100.00
5703;BME280;2876;51.738;10.050;2023-02-22T06:19:51;99128.66;;;9.09;100.00
5703;BME280;2876;51.738;10.050;2023-02-22T06:25:53;99127.97;;;9.00;100.00
5703;BME280;2876;51.738;10.050;2023-02-22T06:31:55;99135.78;;;9.02;100.00
5703;BME280;2876;51.738;10.050;2023-02-22T06:37:57;99130.88;;;9.40;99.14
5703;BME280;2876;51.738;10.050;2023-02-22T06:43:59;99141.31;;;9.28;99.75
5703;BME280;2876;51.738;10.050;2023-02-22T06:50:01;99140.75;;;9.33;99.36
5703;BME280;2876;51.738;10.050;2023-02-22T06:56:03;99139.34;;;9.44;98.65
5703;BME280;2876;51.738;10.050;2023-02-22T07:02:05;99142.88;;;9.16;98.97
5703;BME280;2876;51.738;10.050;2023-02-22T07:08:07;99146.38;;;9.17;99.73
5703;BME280;2876;51.738;10.050;2023-02-22T07:14:09;99142.16;;;9.29;99.32
5703;BME280;2876;51.738;10.050;2023-02-22T07:20:11;99144.56;;;9.52;99.25
5703;BME280;2876;51.738;10.050;2023-02-22T07:26:13;99141.66;;;9.53;99.03
5703;BME280;2876;51.738;10.050;2023-02-22T07:32:16;99145.91;;;9.76;98.55
5703;BME280;2876;51.738;10.050;2023-02-22T07:38:19;99139.69;;;10.16;97.77
5703;BME280;2876;51.738;10.050;2023-02-22T07:44:21;99147.53;;;10.18;97.33
5703;BME280;2876;51.738;10.050;2023-02-22T07:50:26;99150.94;;;10.47;96.26
5703;BME280;2876;51.738;10.050;2023-02-22T07:56:28;99152.63;;;10.87;95.25
5703;BME280;2876;51.738;10.050;2023-02-22T08:02:30;99143.53;;;11.15;93.01
5703;BME280;2876;51.738;10.050;2023-02-22T08:08:32;99135.69;;;11.33;90.41
5703;BME280;2876;51.738;10.050;2023-02-22T08:14:35;99140.63;;;11.50;89.43
5703;BME280;2876;51.738;10.050;2023-02-22T08:20:39;99139.28;;;11.85;86.71
5703;BME280;2876;51.738;10.050;2023-02-22T08:26:45;99133.25;;;11.97;85.90
5703;BME280;2876;51.738;10.050;2023-02-22T08:32:49;99127.75;;;12.23;84.01
5703;BME280;2876;51.738;10.050;2023-02-22T08:38:51;99119.63;;;12.30;82.70
5703;BME280;2876;51.738;10.050;2023-02-22T08:44:53;99127.09;;;12.28;82.95
5703;BME280;2876;51.738;10.050;2023-02-22T08:50:55;99118.81;;;11.84;84.08
5703;BME280;2876;51.738;10.050;2023-02-22T08:56:57;99114.91;;;11.87;83.97
5703;BME280;2876;51.738;10.050;2023-02-22T09:03:00;99108.06;;;11.91;84.05
5703;BME280;2876;51.738;10.050;2023-02-22T09:09:03;99112.22;;;11.74;84.81
5703;BME280;2876;51.738;10.050;2023-02-22T09:15:05;99100.13;;;12.03;84.58
5703;BME280;2876;51.738;10.050;2023-02-22T09:21:07;99099.59;;;12.26;82.76
5703;BME280;2876;51.738;10.050;2023-02-22T09:27:08;99101.50;;;12.50;81.69
5703;BME280;2876;51.738;10.050;2023-02-22T09:33:17;99091.59;;;12.44;82.06
5703;BME280;2876;51.738;10.050;2023-02-22T09:39:19;99094.69;;;12.48;82.20
5703;BME280;2876;51.738;10.050;2023-02-22T09:58:35;99069.06;;;12.95;80.94
5703;BME280;2876;51.738;10.050;2023-02-22T10:04:51;99068.38;;;13.43;78.94
5703;BME280;2876;51.738;10.050;2023-02-22T10:36:47;99048.13;;;14.49;75.71
5703;BME280;2876;51.738;10.050;2023-02-22T10:42:50;99048.16;;;15.19;73.43
5703;BME280;2876;51.738;10.050;2023-02-22T10:48:56;99034.84;;;15.41;72.21
5703;BME280;2876;51.738;10.050;2023-02-22T10:55:03;99021.78;;;15.50;72.05
5703;BME280;2876;51.738;10.050;2023-02-22T11:07:34;99026.09;;;16.20;71.04
5703;BME280;2876;51.738;10.050;2023-02-22T11:13:38;99022.53;;;16.48;68.12
5703;BME280;2876;51.738;10.050;2023-02-22T11:19:47;99016.56;;;16.63;68.11
5703;BME280;2876;51.738;10.050;2023-02-22T11:25:50;99000.66;;;17.22;67.11
5703;BME280;2876;51.738;10.050;2023-02-22T11:32:15;99002.28;;;17.23;65.70
5703;BME280;2876;51.738;10.050;2023-02-22T11:44:28;98977.88;;;18.21;63.60
5703;BME280;2876;51.738;10.050;2023-02-22T11:56:47;98961.31;;;18.55;62.19
5703;BME280;2876;51.738;10.050;2023-02-22T12:16:02;98952.81;;;18.41;61.80
5703;BME280;2876;51.738;10.050;2023-02-22T12:28:53;98944.81;;;18.66;60.25
5703;BME280;2876;51.738;10.050;2023-02-22T12:35:31;98946.25;;;18.69;59.03
5703;BME280;2876;51.738;10.050;2023-02-22T12:41:45;98938.78;;;18.96;58.82
5703;BME280;2876;51.738;10.050;2023-02-22T12:48:19;98941.03;;;19.93;55.96
5703;BME280;2876;51.738;10.050;2023-02-22T12:54:51;98934.50;;;20.35;55.33
5703;BME280;2876;51.738;10.050;2023-02-22T13:01:09;98929.88;;;20.66;53.50
5703;BME280;2876;51.738;10.050;2023-02-22T13:07:39;98916.81;;;20.47;53.26
5703;BME280;2876;51.738;10.050;2023-02-22T13:14:34;98902.94;;;20.18;54.16
5703;BME280;2876;51.738;10.050;2023-02-22T13:21:22;98898.84;;;20.31;54.08
5703;BME280;2876;51.738;10.050;2023-02-22T13:27:39;98892.03;;;20.23;54.56
5703;BME280;2876;51.738;10.050;2023-02-22T13:34:03;98883.84;;;20.39;53.80
5703;BME280;2876;51.738;10.050;2023-02-22T13:53:02;98873.75;;;21.35;52.03
5703;BME280;2876;51.738;10.050;2023-02-22T13:59:06;98875.78;;;21.97;49.44
5703;BME280;2876;51.738;10.050;2023-02-22T14:11:39;98867.22;;;22.09;50.24
5703;BME280;2876;51.738;10.050;2023-02-22T14:17:46;98860.16;;;22.37;48.49
5703;BME280;2876;51.738;10.050;2023-02-22T14:23:53;98858.00;;;22.00;49.50
5703;BME280;2876;51.738;10.050;2023-02-22T14:29:58;98854.75;;;21.64;50.30
5703;BME280;2876;51.738;10.050;2023-02-22T14:36:02;98848.66;;;20.68;52.05
5703;BME280;2876;51.738;10.050;2023-02-22T14:48:48;98824.56;;;18.76;57.59
5703;BME280;2876;51.738;10.050;2023-02-22T15:01:35;98823.56;;;18.45;59.27
5703;BME280;2876;51.738;10.050;2023-02-22T15:08:00;98812.00;;;18.17;59.26
5703;BME280;2876;51.738;10.050;2023-02-22T15:14:17;98809.84;;;17.55;61.74
5703;BME280;2876;51.738;10.050;2023-02-22T15:20:27;98807.13;;;17.23;62.97
5703;BME280;2876;51.738;10.050;2023-02-22T15:26:42;98797.53;;;16.88;64.62
5703;BME280;2876;51.738;10.050;2023-02-22T15:33:19;98802.31;;;16.59;65.68
5703;BME280;2876;51.738;10.050;2023-02-22T15:39:31;98799.38;;;16.22;67.98
5703;BME280;2876;51.738;10.050;2023-02-22T15:45:34;98795.06;;;16.04;68.92
5703;BME280;2876;51.738;10.050;2023-02-22T15:51:41;98797.22;;;15.68;70.36
5703;BME280;2876;51.738;10.050;2023-02-22T15:57:47;98794.19;;;15.19;72.24
5703;BME280;2876;51.738;10.050;2023-02-22T16:03:57;98800.50;;;14.68;74.02
5703;BME280;2876;51.738;10.050;2023-02-22T16:09:59;98802.78;;;14.12;76.27
5703;BME280;2876;51.738;10.050;2023-02-22T16:28:35;98790.50;;;12.98;82.63
5703;BME280;2876;51.738;10.050;2023-02-22T16:34:49;98795.50;;;12.64;84.01
5703;BME280;2876;51.738;10.050;2023-02-22T16:40:54;98803.75;;;12.32;85.60
5703;BME280;2876;51.738;10.050;2023-02-22T16:46:59;98812.00;;;12.12;86.68
5703;BME280;2876;51.738;10.050;2023-02-22T16:53:01;98805.50;;;12.02;87.60
5703;BME280;2876;51.738;10.050;2023-02-22T16:59:10;98815.22;;;11.78;88.29
5703;BME280;2876;51.738;10.050;2023-02-22T17:05:15;98817.88;;;11.53;88.93
5703;BME280;2876;51.738;10.050;2023-02-22T17:11:18;98808.44;;;11.43;89.68
5703;BME280;2876;51.738;10.050;2023-02-22T17:17:20;98811.19;;;11.05;90.65
5703;BME280;2876;51.738;10.050;2023-02-22T17:23:23;98817.88;;;10.89;91.48
5703;BME280;2876;51.738;10.050;2023-02-22T17:29:25;98815.22;;;10.83;91.86
5703;BME280;2876;51.738;10.050;2023-02-22T17:35:35;98828.66;;;10.76;92.22
5703;BME280;2876;51.738;10.050;2023-02-22T17:41:37;98836.81;;;10.50;93.82
5703;BME280;2876;51.738;10.050;2023-02-22T17:47:42;98848.78;;;10.47;93.92
5703;BME280;2876;51.738;10.050;2023-02-22T17:53:44;98845.88;;;10.55;94.83
5703;BME280;2876;51.738;10.050;2023-02-22T17:59:47;98851.28;;;10.35;95.70
5703;BME280;2876;51.738;10.050;2023-02-22T18:05:51;98847.41;;;10.31;96.55
5703;BME280;2876;51.738;10.050;2023-02-22T18:11:56;98845.09;;;10.41;97.25
5703;BME280;2876;51.738;10.050;2023-02-22T18:17:58;98836.00;;;10.49;97.99
5703;BME280;2876;51.738;10.050;2023-02-22T18:24:00;98838.69;;;10.49;97.80
5703;BME280;2876;51.738;10.050;2023-02-22T18:30:05;98838.06;;;10.54;97.54
5703;BME280;2876;51.738;10.050;2023-02-22T18:36:07;98847.50;;;10.56;97.57
5703;BME280;2876;51.738;10.050;2023-02-22T18:42:12;98845.88;;;10.55;97.95
5703;BME280;2876;51.738;10.050;2023-02-22T18:48:15;98847.69;;;10.61;97.53
5703;BME280;2876;51.738;10.050;2023-02-22T18:54:17;98847.72;;;10.55;97.48
5703;BME280;2876;51.738;10.050;2023-02-22T19:00:20;98845.69;;;10.44;98.31
5703;BME280;2876;51.738;10.050;2023-02-22T19:06:25;98848.59;;;10.35;98.77
5703;BME280;2876;51.738;10.050;2023-02-22T19:12:28;98836.44;;;10.33;98.62
5703;BME280;2876;51.738;10.050;2023-02-22T19:18:32;98840.59;;;10.29;99.17
5703;BME280;2876;51.738;10.050;2023-02-22T19:24:34;98845.09;;;10.41;99.33
5703;BME280;2876;51.738;10.050;2023-02-22T19:30:37;98841.41;;;10.36;99.34
5703;BME280;2876;51.738;10.050;2023-02-22T19:36:41;98841.59;;;10.41;99.31
5703;BME280;2876;51.738;10.050;2023-02-22T19:42:48;98838.09;;;10.34;99.42
5703;BME280;2876;51.738;10.050;2023-02-22T19:48:51;98837.69;;;10.17;99.17
5703;BME280;2876;51.738;10.050;2023-02-22T19:54:53;98842.66;;;10.07;98.82
5703;BME280;2876;51.738;10.050;2023-02-22T20:00:55;98835.66;;;9.79;99.23
5703;BME280;2876;51.738;10.050;2023-02-22T20:06:57;98843.50;;;9.74;99.77
5703;BME280;2876;51.738;10.050;2023-02-22T20:13:00;98836.28;;;9.61;99.54
5703;BME280;2876;51.738;10.050;2023-02-22T20:19:02;98850.72;;;9.60;100.00
5703;BME280;2876;51.738;10.050;2023-02-22T20:25:05;98861.81;;;9.51;100.00
5703;BME280;2876;51.738;10.050;2023-02-22T20:31:11;98861.19;;;9.49;100.00
5703;BME280;2876;51.738;10.050;2023-02-22T20:37:14;98863.63;;;9.30;100.00
5703;BME280;2876;51.738;10.050;2023-02-22T20:43:16;98860.19;;;9.50;100.00
5703;BME280;2876;51.738;10.050;2023-02-22T20:49:19;98855.00;;;9.42;100.00
5703;BME280;2876;51.738;10.050;2023-02-22T20:55:21;98849.84;;;9.27;100.00
5703;BME280;2876;51.738;10.050;2023-02-22T21:01:24;98850.47;;;9.35;100.00
5703;BME280;2876;51.738;10.050;2023-02-22T21:07:26;98851.91;;;9.38;100.00
5703;BME280;2876;51.738;10.050;2023-02-22T21:13:28;98847.41;;;9.45;100.00
5703;BME280;2876;51.738;10.050;2023-02-22T21:19:30;98852.75;;;9.52;100.00
5703;BME280;2876;51.738;10.050;2023-02-22T21:25:34;98842.03;;;9.52;100.00
5703;BME280;2876;51.738;10.050;2023-02-22T21:31:36;98837.31;;;9.47;100.00
5703;BME280;2876;51.738;10.050;2023-02-22T21:37:38;98842.66;;;9.67;100.00
5703;BME280;2876;51.738;10.050;2023-02-22T21:43:41;98835.47;;;9.61;100.00
5703;BME280;2876;51.738;10.050;2023-02-22T21:49:44;98842.03;;;9.52;100.00
5703;BME280;2876;51.738;10.050;2023-02-22T21:55:46;98841.25;;;9.64;100.00
5703;BME280;2876;51.738;10.050;2023-02-22T22:01:53;98834.22;;;9.44;100.00
5703;BME280;2876;51.738;10.050;2023-02-22T22:08:02;98840.75;;;9.14;100.00
5703;BME280;2876;51.738;10.050;2023-02-22T22:14:08;98840.75;;;9.14;100.00
5703;BME280;2876;51.738;10.050;2023-02-22T22:20:13;98836.19;;;8.95;100.00
5703;BME280;2876;51.738;10.050;2023-02-22T22:26:20;98836.81;;;8.97;100.00
5703;BME280;2876;51.738;10.050;2023-02-22T22:32:25;98847.88;;;8.94;100.00
5703;BME280;2876;51.738;10.050;2023-02-22T22:38:27;98837.97;;;8.75;100.00
5703;BME280;2876;51.738;10.050;2023-02-22T22:44:30;98838.94;;;8.60;100.00
5703;BME280;2876;51.738;10.050;2023-02-22T22:50:35;98841.81;;;8.59;100.00
5703;BME280;2876;51.738;10.050;2023-02-22T22:56:38;98848.44;;;8.76;100.00
5703;BME280;2876;51.738;10.050;2023-02-22T23:02:40;98845.69;;;8.56;100.00
5703;BME280;2876;51.738;10.050;2023-02-22T23:08:42;98844.00;;;8.42;100.00
5703;BME280;2876;51.738;10.050;2023-02-22T23:14:44;98850.00;;;8.51;100.00
5703;BME280;2876;51.738;10.050;2023-02-22T23:20:48;98846.13;;;8.60;100.00
5703;BME280;2876;51.738;10.050;2023-02-22T23:26:55;98850.34;;;8.41;100.00
5703;BME280;2876;51.738;10.050;2023-02-22T23:33:00;98849.44;;;8.34;100.00
5703;BME280;2876;51.738;10.050;2023-02-22T23:39:04;98853.28;;;8.18;100.00
5703;BME280;2876;51.738;10.050;2023-02-22T23:45:07;98860.19;;;8.12;100.00
5703;BME280;2876;51.738;10.050;2023-02-22T23:51:17;98864.63;;;7.99;100.00
5703;BME280;2876;51.738;10.050;2023-02-22T23:57:21;98863.31;;;8.16;100.00
